createdAt,value
2022-11-16T00:05:42.803Z,69.89
2022-11-16T00:08:14.361Z,69.90
2022-11-16T00:19:40.554Z,69.79
2022-11-16T00:22:09.789Z,70.10
2022-11-16T00:30:45.140Z,69.64
2022-11-16T00:33:16.372Z,70.12
2022-11-16T00:35:46.700Z,70.29
2022-11-16T00:38:17.859Z,69.81
2022-11-16T00:40:48.420Z,69.79
2022-11-16T00:43:17.390Z,70.04
2022-11-16T00:45:47.560Z,70.32
2022-11-16T00:48:15.935Z,69.80
2022-11-16T00:50:45.717Z,69.55
2022-11-16T00:53:15.093Z,69.47
2022-11-16T00:55:45.381Z,69.73
2022-11-16T00:58:15.787Z,69.69
2022-11-16T01:00:44.884Z,69.66
2022-11-16T01:03:16.979Z,69.70
2022-11-16T01:05:45.601Z,70.03
2022-11-16T01:08:14.178Z,70.03
2022-11-16T01:10:43.278Z,70.05
2022-11-16T01:13:11.155Z,70.34
2022-11-16T01:15:40.079Z,69.90
2022-11-16T01:18:09.839Z,69.85
2022-11-16T01:20:41.530Z,69.73
2022-11-16T01:23:09.989Z,69.68
2022-11-16T01:25:40.239Z,69.76
2022-11-16T01:28:08.820Z,69.70
2022-11-16T01:30:38.463Z,70.14
2022-11-16T01:33:06.826Z,70.15
2022-11-16T01:35:36.389Z,70.29
2022-11-16T01:38:06.985Z,69.77
2022-11-16T01:40:35.330Z,70.10
2022-11-16T01:43:03.647Z,70.17
2022-11-16T01:45:36.982Z,69.82
2022-11-16T01:48:05.758Z,69.84
2022-11-16T01:50:34.485Z,69.60
2022-11-16T01:53:04.182Z,69.57
2022-11-16T01:55:35.231Z,69.66
2022-11-16T01:58:05.581Z,69.76
2022-11-16T02:00:34.500Z,69.68
2022-11-16T02:03:03.810Z,69.82
2022-11-16T02:05:34.478Z,69.69
2022-11-16T02:11:17.513Z,69.95
2022-11-16T02:13:51.652Z,69.99
2022-11-16T02:16:26.562Z,69.72
2022-11-16T02:19:01.698Z,69.50
2022-11-16T02:24:50.242Z,69.37
2022-11-16T02:27:40.282Z,69.24
2022-11-16T02:30:10.914Z,69.19
2022-11-16T02:32:47.720Z,69.29
2022-11-16T02:35:19.579Z,69.44
2022-11-16T02:37:50.419Z,69.26
2022-11-16T02:40:21.551Z,69.48
2022-11-16T02:42:53.978Z,69.24
2022-11-16T02:45:26.026Z,69.50
2022-11-16T02:47:56.379Z,69.23
2022-11-16T02:50:27.852Z,69.61
2022-11-16T02:52:57.084Z,69.25
2022-11-16T02:55:25.883Z,69.40
2022-11-16T02:57:58.051Z,69.51
2022-11-16T03:00:31.128Z,69.35
2022-11-16T03:03:05.688Z,69.31
2022-11-16T03:05:36.054Z,69.51
2022-11-16T03:08:09.711Z,69.46
2022-11-16T03:10:58.994Z,69.55
2022-11-16T03:13:31.084Z,69.34
2022-11-16T03:16:02.725Z,69.21
2022-11-16T03:18:32.152Z,69.35
2022-11-16T03:21:06.606Z,69.50
2022-11-16T03:23:35.207Z,69.35
2022-11-16T03:26:07.191Z,69.10
2022-11-16T03:28:38.789Z,69.11
2022-11-16T03:31:13.478Z,69.02
2022-11-16T03:33:45.671Z,69.02
2022-11-16T03:36:18.515Z,69.14
2022-11-16T03:38:51.044Z,69.22
2022-11-16T03:41:21.308Z,69.25
2022-11-16T03:43:50.834Z,69.03
2022-11-16T03:46:21.481Z,69.04
2022-11-16T03:48:50.174Z,68.67
2022-11-16T03:51:18.921Z,68.89
2022-11-16T03:53:47.912Z,69.07
2022-11-16T03:56:16.811Z,68.96
2022-11-16T03:58:45.332Z,69.27
2022-11-16T04:01:14.448Z,68.96
2022-11-16T04:03:44.990Z,69.09
2022-11-16T04:06:52.841Z,69.08
2022-11-16T04:09:47.726Z,69.07
2022-11-16T04:12:33.571Z,69.09
2022-11-16T04:15:19.774Z,69.10
2022-11-16T04:18:05.671Z,69.24
2022-11-16T04:20:53.152Z,69.32
2022-11-16T04:23:40.085Z,69.06
2022-11-16T04:26:09.360Z,69.20
2022-11-16T04:28:38.628Z,69.20
2022-11-16T04:31:25.019Z,68.94
2022-11-16T04:34:12.929Z,68.90
2022-11-16T04:37:00.549Z,68.97
2022-11-16T04:39:29.250Z,68.98
2022-11-16T04:42:14.884Z,68.84
2022-11-16T04:45:00.434Z,68.64
2022-11-16T04:47:31.120Z,68.79
2022-11-16T04:50:00.458Z,68.40
2022-11-16T04:52:32.443Z,68.61
2022-11-16T04:55:01.815Z,68.82
2022-11-16T04:57:31.658Z,68.70
2022-11-16T05:00:00.246Z,68.80
2022-11-16T05:02:29.316Z,68.47
2022-11-16T05:04:58.426Z,68.40
2022-11-16T05:07:26.924Z,68.26
2022-11-16T05:09:57.641Z,68.68
2022-11-16T05:12:27.142Z,68.60
2022-11-16T05:14:56.704Z,69.06
2022-11-16T05:17:27.479Z,68.97
2022-11-16T05:20:13.759Z,68.66
2022-11-16T05:22:42.761Z,68.58
2022-11-16T05:25:13.408Z,68.46
2022-11-16T05:27:42.380Z,68.44
2022-11-16T05:30:11.692Z,68.37
2022-11-16T05:32:42.896Z,68.43
2022-11-16T05:35:12.015Z,68.38
2022-11-16T05:37:40.674Z,68.45
2022-11-16T05:40:11.201Z,68.33
2022-11-16T05:42:42.172Z,68.63
2022-11-16T05:45:11.604Z,68.50
2022-11-16T05:47:40.146Z,68.21
2022-11-16T05:50:09.745Z,68.06
2022-11-16T05:52:39.231Z,68.31
2022-11-16T05:55:08.286Z,68.03
2022-11-16T05:57:37.488Z,68.05
2022-11-16T06:00:11.020Z,68.03
2022-11-16T06:02:40.764Z,67.98
2022-11-16T06:05:10.601Z,68.02
2022-11-16T06:07:40.112Z,67.86
2022-11-16T06:10:10.730Z,67.25
2022-11-16T06:12:41.227Z,67.22
2022-11-16T06:15:14.246Z,67.20
2022-11-16T06:17:43.522Z,67.00
2022-11-16T06:20:14.293Z,66.93
2022-11-16T06:22:43.901Z,66.97
2022-11-16T06:25:13.710Z,67.01
2022-11-16T06:27:43.617Z,66.82
2022-11-16T06:30:14.321Z,67.09
2022-11-16T06:32:45.382Z,67.31
2022-11-16T06:35:17.658Z,66.85
2022-11-16T06:37:46.733Z,66.96
2022-11-16T06:40:15.607Z,66.76
2022-11-16T06:42:44.185Z,66.16
2022-11-16T06:45:16.010Z,66.22
2022-11-16T06:47:45.224Z,66.13
2022-11-16T06:50:13.964Z,66.33
2022-11-16T06:52:43.146Z,66.31
2022-11-16T06:55:12.929Z,66.08
2022-11-16T06:57:44.911Z,66.28
2022-11-16T07:00:15.955Z,66.48
2022-11-16T07:02:44.823Z,66.54
2022-11-16T07:05:13.680Z,66.34
2022-11-16T07:07:42.954Z,66.53
2022-11-16T07:10:12.043Z,66.21
2022-11-16T07:12:41.856Z,66.23
2022-11-16T07:15:11.445Z,66.07
2022-11-16T07:17:42.620Z,66.04
2022-11-16T07:20:12.418Z,66.29
2022-11-16T07:22:46.230Z,66.13
2022-11-16T07:25:17.893Z,65.86
2022-11-16T07:27:47.045Z,65.81
2022-11-16T07:30:16.005Z,65.64
2022-11-16T07:32:47.910Z,65.59
2022-11-16T07:35:19.847Z,65.69
2022-11-16T07:37:50.650Z,65.55
2022-11-16T07:40:20.027Z,65.28
2022-11-16T07:42:49.613Z,65.21
2022-11-16T07:45:18.567Z,64.75
2022-11-16T07:47:54.246Z,64.43
2022-11-16T07:50:23.063Z,63.91
2022-11-16T07:52:53.224Z,64.17
2022-11-16T07:55:23.471Z,63.79
2022-11-16T07:57:54.480Z,63.79
2022-11-16T08:00:27.883Z,62.84
2022-11-16T08:03:02.383Z,63.22
2022-11-16T08:05:31.677Z,62.98
2022-11-16T08:08:00.798Z,62.74
2022-11-16T08:10:30.358Z,62.48
2022-11-16T08:13:00.290Z,62.81
2022-11-16T08:15:29.147Z,62.55
2022-11-16T08:18:01.894Z,62.33
2022-11-16T08:20:32.851Z,62.44
2022-11-16T08:23:08.134Z,62.35
2022-11-16T08:25:37.297Z,62.23
2022-11-16T08:28:08.028Z,61.63
2022-11-16T08:30:41.977Z,61.47
2022-11-16T08:33:18.075Z,61.33
2022-11-16T08:35:49.947Z,61.38
2022-11-16T08:38:20.335Z,61.14
2022-11-16T08:40:51.621Z,61.30
2022-11-16T08:43:25.912Z,61.22
2022-11-16T08:45:56.545Z,60.62
2022-11-16T08:48:32.679Z,60.74
2022-11-16T08:51:21.564Z,60.91
2022-11-16T08:53:53.761Z,60.73
2022-11-16T08:56:22.792Z,59.74
2022-11-16T08:58:58.904Z,60.27
2022-11-16T09:01:32.061Z,59.91
2022-11-16T09:04:05.858Z,59.92
2022-11-16T09:06:39.394Z,59.83
2022-11-16T09:09:15.488Z,59.91
2022-11-16T09:11:47.540Z,60.27
2022-11-16T09:14:17.904Z,59.62
2022-11-16T09:16:50.108Z,59.24
2022-11-16T09:19:25.915Z,59.52
2022-11-16T09:21:54.837Z,58.88
2022-11-16T09:24:23.541Z,59.12
2022-11-16T09:26:54.920Z,59.32
2022-11-16T09:29:24.019Z,59.08
2022-11-16T09:31:53.131Z,58.49
2022-11-16T09:34:23.867Z,58.44
2022-11-16T09:36:52.865Z,58.22
2022-11-16T09:39:37.358Z,57.89
2022-11-16T09:42:22.035Z,57.82
2022-11-16T09:45:09.252Z,57.10
2022-11-16T09:47:43.407Z,57.20
2022-11-16T09:50:21.377Z,57.36
2022-11-16T09:52:53.097Z,57.63
2022-11-16T09:55:27.074Z,57.49
2022-11-16T09:57:58.025Z,57.42
2022-11-16T10:00:29.208Z,57.10
2022-11-16T10:03:02.289Z,56.87
2022-11-16T10:05:36.657Z,57.26
2022-11-16T10:08:09.847Z,57.25
2022-11-16T10:10:40.213Z,57.31
2022-11-16T10:13:14.590Z,57.22
2022-11-16T10:15:59.540Z,57.08
2022-11-16T10:18:49.188Z,57.15
2022-11-16T10:21:35.546Z,57.40
2022-11-16T10:24:22.761Z,57.56
2022-11-16T10:26:56.527Z,56.45
2022-11-16T10:29:35.409Z,56.76
2022-11-16T10:32:18.927Z,56.78
2022-11-16T10:34:52.444Z,56.57
2022-11-16T10:37:26.038Z,57.09
2022-11-16T10:39:55.287Z,56.42
2022-11-16T10:42:29.679Z,56.34
2022-11-16T10:45:02.524Z,55.08
2022-11-16T10:47:38.754Z,55.01
2022-11-16T10:50:16.799Z,55.23
2022-11-16T10:52:46.974Z,55.83
2022-11-16T10:55:17.411Z,55.63
2022-11-16T10:57:58.067Z,55.03
2022-11-16T11:00:38.110Z,55.23
2022-11-16T11:03:11.135Z,55.66
2022-11-16T11:05:48.970Z,55.40
2022-11-16T11:08:31.367Z,55.12
2022-11-16T11:11:28.632Z,55.73
2022-11-16T11:14:06.495Z,55.27
2022-11-16T11:16:35.683Z,55.65
2022-11-16T11:19:19.875Z,55.13
2022-11-16T11:21:51.397Z,55.48
2022-11-16T11:24:49.031Z,55.18
2022-11-16T11:27:24.061Z,55.44
2022-11-16T11:29:54.525Z,54.83
2022-11-16T11:32:31.058Z,55.42
2022-11-16T11:35:07.842Z,55.69
2022-11-16T11:37:41.317Z,56.10
2022-11-16T11:40:24.722Z,56.07
2022-11-16T11:42:59.565Z,56.38
2022-11-16T11:45:44.782Z,55.94
2022-11-16T11:48:24.791Z,55.61
2022-11-16T11:50:58.120Z,55.25
2022-11-16T11:53:39.503Z,54.52
2022-11-16T11:56:13.398Z,54.82
2022-11-16T11:58:44.991Z,54.95
2022-11-16T12:01:25.575Z,55.21
2022-11-16T12:04:10.665Z,54.41
2022-11-16T12:06:43.889Z,55.06
2022-11-16T12:09:20.370Z,54.87
2022-11-16T12:12:00.194Z,55.26
2022-11-16T12:14:36.931Z,55.61
2022-11-16T12:17:10.153Z,55.60
2022-11-16T12:19:59.594Z,54.96
2022-11-16T12:22:45.903Z,55.77
2022-11-16T12:25:20.450Z,55.70
2022-11-16T12:27:53.657Z,55.80
2022-11-16T12:30:24.533Z,56.09
2022-11-16T12:32:58.604Z,55.99
2022-11-16T12:35:32.825Z,56.11
2022-11-16T12:38:06.683Z,56.27
2022-11-16T12:40:44.530Z,56.46
2022-11-16T12:43:19.669Z,56.35
2022-11-16T12:46:10.424Z,56.50
2022-11-16T12:49:00.218Z,56.36
2022-11-16T12:51:34.519Z,55.98
2022-11-16T12:54:14.065Z,56.56
2022-11-16T12:56:50.019Z,56.50
2022-11-16T12:59:26.926Z,56.68
2022-11-16T13:02:02.086Z,56.80
2022-11-16T13:04:35.345Z,56.63
2022-11-16T13:07:10.910Z,56.70
2022-11-16T13:09:43.121Z,56.72
2022-11-16T13:12:14.389Z,56.91
2022-11-16T13:14:47.559Z,56.90
2022-11-16T13:17:22.372Z,57.11
2022-11-16T13:20:00.684Z,57.17
2022-11-16T13:22:29.860Z,57.30
2022-11-16T13:25:05.917Z,56.96
2022-11-16T13:27:39.467Z,57.57
2022-11-16T13:30:20.396Z,57.61
2022-11-16T13:33:00.132Z,57.59
2022-11-16T13:35:29.844Z,57.67
2022-11-16T13:37:58.902Z,57.70
2022-11-16T13:40:29.319Z,57.60
2022-11-16T13:43:16.089Z,57.52
2022-11-16T13:45:53.381Z,57.68
2022-11-16T13:48:24.714Z,57.38
2022-11-16T13:50:58.703Z,57.74
2022-11-16T13:54:25.237Z,57.57
2022-11-16T13:56:21.795Z,57.94
2022-11-16T13:58:55.503Z,57.79
2022-11-16T14:01:29.147Z,58.04
2022-11-16T14:04:30.980Z,57.77
2022-11-16T14:07:03.064Z,57.90
2022-11-16T14:09:52.467Z,57.94
2022-11-16T14:12:40.879Z,57.73
2022-11-16T14:15:18.502Z,58.06
2022-11-16T14:17:59.798Z,58.20
2022-11-16T14:20:43.932Z,57.89
2022-11-16T14:23:27.781Z,58.12
2022-11-16T14:25:59.580Z,58.14
2022-11-16T14:28:38.121Z,58.25
2022-11-16T14:31:09.617Z,58.36
2022-11-16T14:33:41.748Z,58.58
2022-11-16T14:36:11.482Z,58.71
2022-11-16T14:38:41.231Z,58.74
2022-11-16T14:41:15.342Z,58.57
2022-11-16T14:43:46.332Z,58.79
2022-11-16T14:46:19.711Z,59.04
2022-11-16T14:48:51.382Z,58.97
2022-11-16T14:51:22.693Z,59.07
2022-11-16T14:53:54.303Z,59.05
2022-11-16T14:56:23.334Z,58.90
2022-11-16T14:58:56.135Z,58.92
2022-11-16T15:01:27.161Z,59.12
2022-11-16T15:04:02.556Z,59.37
2022-11-16T15:06:32.621Z,59.20
2022-11-16T15:09:02.371Z,59.41
2022-11-16T15:11:46.619Z,59.18
2022-11-16T15:14:18.276Z,59.52
2022-11-16T15:16:50.818Z,59.64
2022-11-16T15:19:21.128Z,59.58
2022-11-16T15:21:54.050Z,59.71
2022-11-16T15:24:30.861Z,59.58
2022-11-16T15:27:04.699Z,59.42
2022-11-16T15:29:33.825Z,59.47
2022-11-16T15:32:03.363Z,59.88
2022-11-16T15:34:34.609Z,59.88
2022-11-16T15:37:03.439Z,59.95
2022-11-16T15:39:35.799Z,59.85
2022-11-16T15:42:04.940Z,59.92
2022-11-16T15:44:35.481Z,59.92
2022-11-16T15:47:07.065Z,60.37
2022-11-16T15:49:40.252Z,60.10
2022-11-16T15:52:09.397Z,59.88
2022-11-16T15:54:53.018Z,60.10
2022-11-16T15:57:23.085Z,60.08
2022-11-16T15:59:57.443Z,60.33
2022-11-16T16:02:28.289Z,60.33
2022-11-16T16:04:58.996Z,60.30
2022-11-16T16:07:40.567Z,60.44
2022-11-16T16:10:25.987Z,60.29
2022-11-16T16:12:55.934Z,60.09
2022-11-16T16:15:26.311Z,60.05
2022-11-16T16:17:55.569Z,60.15
2022-11-16T16:20:26.550Z,60.51
2022-11-16T16:22:55.266Z,60.34
2022-11-16T16:25:32.325Z,60.35
2022-11-16T16:28:01.465Z,60.33
2022-11-16T16:30:32.037Z,60.53
2022-11-16T16:33:02.246Z,60.31
2022-11-16T16:35:32.521Z,60.31
2022-11-16T16:38:03.795Z,60.51
2022-11-16T16:40:36.555Z,60.57
2022-11-16T16:43:05.057Z,60.56
2022-11-16T16:45:37.344Z,60.40
2022-11-16T16:48:06.673Z,60.51
2022-11-16T16:50:37.642Z,60.50
2022-11-16T16:53:06.766Z,60.35
2022-11-16T16:55:37.856Z,60.31
2022-11-16T16:58:07.418Z,60.46
2022-11-16T17:00:36.661Z,60.66
2022-11-16T17:03:05.643Z,60.51
2022-11-16T17:05:35.565Z,60.71
2022-11-16T17:08:06.476Z,60.32
2022-11-16T17:10:36.030Z,60.21
2022-11-16T17:13:05.472Z,60.63
2022-11-16T17:15:35.594Z,60.70
2022-11-16T17:18:04.129Z,60.76
2022-11-16T17:20:33.427Z,60.74
2022-11-16T17:23:02.120Z,60.79
2022-11-16T17:25:33.270Z,61.17
2022-11-16T17:28:02.697Z,61.16
2022-11-16T17:30:32.012Z,61.12
2022-11-16T17:33:01.702Z,61.48
2022-11-16T17:35:30.905Z,61.55
2022-11-16T17:38:00.064Z,61.32
2022-11-16T17:40:28.715Z,61.16
2022-11-16T17:42:59.608Z,60.92
2022-11-16T17:45:28.201Z,61.23
2022-11-16T17:47:57.220Z,61.36
2022-11-16T17:50:26.609Z,61.56
2022-11-16T17:52:55.524Z,61.62
2022-11-16T17:55:28.997Z,61.51
2022-11-16T17:57:59.752Z,61.25
2022-11-16T18:00:28.409Z,61.37
2022-11-16T18:02:57.623Z,61.40
2022-11-16T18:05:28.339Z,61.37
2022-11-16T18:07:59.011Z,61.31
2022-11-16T18:10:27.869Z,61.39
2022-11-16T18:12:56.661Z,61.37
2022-11-16T18:15:28.961Z,61.37
2022-11-16T18:17:59.227Z,61.47
2022-11-16T18:20:28.722Z,61.27
2022-11-16T18:22:58.549Z,61.60
2022-11-16T18:25:27.430Z,61.81
2022-11-16T18:27:57.302Z,61.60
2022-11-16T18:30:28.838Z,61.73
2022-11-16T18:32:57.998Z,61.84
2022-11-16T18:35:27.743Z,62.24
2022-11-16T18:37:56.483Z,62.28
2022-11-16T18:40:25.595Z,62.49
2022-11-16T18:42:55.602Z,62.48
2022-11-16T18:45:26.789Z,62.59
2022-11-16T18:47:58.026Z,62.76
2022-11-16T18:50:27.747Z,62.82
2022-11-16T18:52:57.738Z,62.84
2022-11-16T18:55:26.959Z,63.48
2022-11-16T18:57:55.724Z,63.97
2022-11-16T19:00:24.398Z,63.81
2022-11-16T19:02:53.168Z,64.17
2022-11-16T19:05:24.397Z,64.00
2022-11-16T19:07:53.121Z,64.23
2022-11-16T19:10:22.699Z,64.11
2022-11-16T19:12:51.235Z,63.65
2022-11-16T19:15:20.184Z,63.94
2022-11-16T19:18:19.414Z,63.60
2022-11-16T19:20:38.696Z,63.68
2022-11-16T19:23:07.182Z,63.55
2022-11-16T19:25:36.315Z,63.56
2022-11-16T19:28:05.613Z,63.29
2022-11-16T19:30:34.313Z,63.55
2022-11-16T19:33:04.830Z,63.54
2022-11-16T19:35:34.336Z,63.47
2022-11-16T19:38:05.334Z,63.52
2022-11-16T19:40:34.324Z,63.49
2022-11-16T19:43:04.226Z,63.17
2022-11-16T19:45:33.154Z,63.51
2022-11-16T19:48:01.912Z,63.08
2022-11-16T19:50:32.151Z,63.39
2022-11-16T19:53:00.794Z,63.37
2022-11-16T19:55:31.229Z,63.46
2022-11-16T19:57:59.539Z,63.20
2022-11-16T20:00:28.131Z,63.11
2022-11-16T20:02:58.462Z,63.26
2022-11-16T20:05:30.476Z,63.66
2022-11-16T20:07:59.317Z,64.66
2022-11-16T20:10:31.651Z,64.96
2022-11-16T20:13:01.761Z,64.49
2022-11-16T20:15:30.782Z,64.43
2022-11-16T20:18:00.129Z,64.52
2022-11-16T20:20:29.299Z,64.83
2022-11-16T20:22:59.134Z,64.60
2022-11-16T20:25:30.047Z,64.60
2022-11-16T20:27:59.177Z,64.61
2022-11-16T20:30:29.781Z,65.03
2022-11-16T20:32:58.301Z,65.02
2022-11-16T20:35:27.206Z,65.23
2022-11-16T20:37:55.828Z,65.00
2022-11-16T20:40:24.670Z,64.78
2022-11-16T20:42:53.143Z,65.23
2022-11-16T20:45:22.364Z,64.99
2022-11-16T20:47:52.716Z,64.77
2022-11-16T20:50:22.268Z,65.15
2022-11-16T20:52:52.843Z,64.84
2022-11-16T20:55:21.868Z,64.61
2022-11-16T20:57:50.553Z,64.58
2022-11-16T21:00:20.194Z,64.49
2022-11-16T21:02:49.320Z,64.66
2022-11-16T21:05:19.302Z,64.66
2022-11-16T21:07:47.734Z,64.52
2022-11-16T21:10:22.780Z,64.43
2022-11-16T21:13:08.271Z,64.51
2022-11-16T21:15:37.128Z,64.34
2022-11-16T21:18:05.596Z,64.22
2022-11-16T21:20:35.363Z,64.50
2022-11-16T21:23:04.361Z,63.97
2022-11-16T21:25:33.110Z,63.98
2022-11-16T21:28:02.361Z,63.93
2022-11-16T21:30:31.356Z,64.04
2022-11-16T21:32:59.967Z,64.39
2022-11-16T21:35:28.695Z,64.17
2022-11-16T21:37:59.052Z,64.30
2022-11-16T21:40:27.564Z,64.08
2022-11-16T21:42:56.286Z,64.21
2022-11-16T21:45:25.205Z,64.12
2022-11-16T21:47:53.597Z,64.00
2022-11-16T21:50:31.497Z,64.03
2022-11-16T21:53:03.117Z,63.80
2022-11-16T21:55:31.555Z,63.91
2022-11-16T21:58:00.317Z,63.77
2022-11-16T22:00:30.284Z,64.13
2022-11-16T22:02:59.303Z,63.87
2022-11-16T22:05:45.492Z,63.82
2022-11-16T22:08:15.739Z,63.78
2022-11-16T22:10:44.787Z,63.74
2022-11-16T22:13:13.242Z,63.44
2022-11-16T22:15:42.055Z,63.70
2022-11-16T22:18:10.305Z,63.71
2022-11-16T22:20:39.285Z,63.56
2022-11-16T22:23:07.988Z,63.72
2022-11-16T22:25:42.185Z,63.68
2022-11-16T22:28:20.538Z,63.46
2022-11-16T22:30:51.993Z,63.87
2022-11-16T22:33:22.411Z,63.54
2022-11-16T22:35:50.834Z,63.49
2022-11-16T22:38:19.200Z,63.97
2022-11-16T22:40:53.272Z,63.73
2022-11-16T22:43:22.589Z,63.77
2022-11-16T22:45:53.132Z,63.69
2022-11-16T22:48:22.032Z,63.29
2022-11-16T22:50:50.783Z,63.49
2022-11-16T22:53:19.596Z,63.62
2022-11-16T22:55:47.714Z,63.40
2022-11-16T22:58:18.306Z,63.65
2022-11-16T23:00:46.625Z,63.42
2022-11-16T23:03:18.022Z,63.53
2022-11-16T23:05:47.097Z,63.50
2022-11-16T23:08:17.132Z,63.71
2022-11-16T23:10:59.247Z,63.57
2022-11-16T23:13:47.957Z,63.91
2022-11-16T23:16:18.667Z,63.72
2022-11-16T23:18:47.806Z,64.00
2022-11-16T23:21:48.310Z,64.34
2022-11-16T23:24:34.129Z,64.01
2022-11-16T23:27:22.350Z,64.39
2022-11-16T23:29:53.790Z,64.37
2022-11-16T23:32:22.255Z,64.38
2022-11-16T23:34:51.149Z,65.00
2022-11-16T23:37:20.545Z,65.16
2022-11-16T23:39:49.402Z,65.04
2022-11-16T23:42:41.269Z,65.02
2022-11-16T23:45:11.773Z,65.47
2022-11-16T23:47:41.540Z,65.31
2022-11-16T23:50:11.396Z,64.82
2022-11-16T23:52:39.720Z,65.57
2022-11-16T23:55:08.549Z,66.32
2022-11-16T23:57:37.698Z,65.88
